sensor_id;sensor_type;location;lat;lon;timestamp;temperature;humidity
21193;DHT22;10754;51.106;7.164;2023-04-24T00:02:16;15.50;1.00
21193;DHT22;10754;51.106;7.164;2023-04-24T00:04:42;15.40;1.00
21193;DHT22;10754;51.106;7.164;2023-04-24T00:07:10;15.40;1.00
21193;DHT22;10754;51.106;7.164;2023-04-24T00:09:36;15.30;1.00
21193;DHT22;10754;51.106;7.164;2023-04-24T00:12:01;15.30;1.00
21193;DHT22;10754;51.106;7.164;2023-04-24T00:14:30;15.10;1.00
21193;DHT22;10754;51.106;7.164;2023-04-24T00:16:55;15.30;1.00
21193;DHT22;10754;51.106;7.164;2023-04-24T00:19:21;15.10;1.00
21193;DHT22;10754;51.106;7.164;2023-04-24T00:21:47;15.00;1.00
21193;DHT22;10754;51.106;7.164;2023-04-24T00:24:16;14.90;1.00
21193;DHT22;10754;51.106;7.164;2023-04-24T00:26:42;15.00;1.00
21193;DHT22;10754;51.106;7.164;2023-04-24T00:29:07;15.10;1.00
21193;DHT22;10754;51.106;7.164;2023-04-24T00:31:33;15.30;1.00
21193;DHT22;10754;51.106;7.164;2023-04-24T00:34:00;15.20;1.00
21193;DHT22;10754;51.106;7.164;2023-04-24T00:36:26;15.20;1.00
21193;DHT22;10754;51.106;7.164;2023-04-24T00:38:52;15.10;1.00
21193;DHT22;10754;51.106;7.164;2023-04-24T00:41:18;15.00;1.00
21193;DHT22;10754;51.106;7.164;2023-04-24T00:43:44;15.00;1.00
21193;DHT22;10754;51.106;7.164;2023-04-24T00:46:10;15.40;1.00
21193;DHT22;10754;51.106;7.164;2023-04-24T00:48:37;15.30;1.00
21193;DHT22;10754;51.106;7.164;2023-04-24T00:51:03;15.40;1.00
21193;DHT22;10754;51.106;7.164;2023-04-24T00:53:29;15.20;1.00
21193;DHT22;10754;51.106;7.164;2023-04-24T00:55:55;15.20;1.00
21193;DHT22;10754;51.106;7.164;2023-04-24T00:58:21;15.10;1.00
21193;DHT22;10754;51.106;7.164;2023-04-24T01:00:48;14.90;1.00
21193;DHT22;10754;51.106;7.164;2023-04-24T01:03:14;14.80;1.00
21193;DHT22;10754;51.106;7.164;2023-04-24T01:05:41;15.10;1.00
21193;DHT22;10754;51.106;7.164;2023-04-24T01:08:07;15.40;1.00
21193;DHT22;10754;51.106;7.164;2023-04-24T01:10:33;15.50;1.00
21193;DHT22;10754;51.106;7.164;2023-04-24T01:13:00;15.30;1.00
21193;DHT22;10754;51.106;7.164;2023-04-24T01:15:25;15.50;1.00
21193;DHT22;10754;51.106;7.164;2023-04-24T01:17:51;15.60;1.00
21193;DHT22;10754;51.106;7.164;2023-04-24T01:20:17;15.40;1.00
21193;DHT22;10754;51.106;7.164;2023-04-24T01:22:42;15.10;1.00
21193;DHT22;10754;51.106;7.164;2023-04-24T01:25:08;15.00;1.00
21193;DHT22;10754;51.106;7.164;2023-04-24T01:27:34;15.20;1.00
21193;DHT22;10754;51.106;7.164;2023-04-24T01:30:00;15.10;1.00
21193;DHT22;10754;51.106;7.164;2023-04-24T01:32:26;15.20;1.00
21193;DHT22;10754;51.106;7.164;2023-04-24T01:34:52;15.00;1.00
21193;DHT22;10754;51.106;7.164;2023-04-24T01:37:17;15.00;1.00
21193;DHT22;10754;51.106;7.164;2023-04-24T01:39:43;14.80;1.00
21193;DHT22;10754;51.106;7.164;2023-04-24T01:42:09;14.90;1.00
21193;DHT22;10754;51.106;7.164;2023-04-24T01:44:35;15.00;1.00
21193;DHT22;10754;51.106;7.164;2023-04-24T01:47:01;15.60;1.00
21193;DHT22;10754;51.106;7.164;2023-04-24T01:49:26;15.50;1.00
21193;DHT22;10754;51.106;7.164;2023-04-24T01:51:52;15.20;1.00
21193;DHT22;10754;51.106;7.164;2023-04-24T01:54:18;15.30;1.00
21193;DHT22;10754;51.106;7.164;2023-04-24T01:56:43;14.90;1.00
21193;DHT22;10754;51.106;7.164;2023-04-24T01:59:10;14.70;1.00
21193;DHT22;10754;51.106;7.164;2023-04-24T02:01:36;14.50;1.00
21193;DHT22;10754;51.106;7.164;2023-04-24T02:04:03;14.50;1.00
21193;DHT22;10754;51.106;7.164;2023-04-24T02:06:29;14.30;1.00
21193;DHT22;10754;51.106;7.164;2023-04-24T02:08:57;14.30;1.00
21193;DHT22;10754;51.106;7.164;2023-04-24T02:11:23;14.40;1.00
21193;DHT22;10754;51.106;7.164;2023-04-24T02:13:48;14.40;1.00
21193;DHT22;10754;51.106;7.164;2023-04-24T02:16:14;14.40;1.00
21193;DHT22;10754;51.106;7.164;2023-04-24T02:18:39;14.40;1.00
21193;DHT22;10754;51.106;7.164;2023-04-24T02:21:05;14.50;1.00
21193;DHT22;10754;51.106;7.164;2023-04-24T02:23:30;14.50;1.00
21193;DHT22;10754;51.106;7.164;2023-04-24T02:25:56;14.40;1.00
21193;DHT22;10754;51.106;7.164;2023-04-24T02:28:21;14.40;1.00
21193;DHT22;10754;51.106;7.164;2023-04-24T02:30:47;14.30;1.00
21193;DHT22;10754;51.106;7.164;2023-04-24T02:33:12;14.20;1.00
21193;DHT22;10754;51.106;7.164;2023-04-24T02:35:38;14.20;1.00
21193;DHT22;10754;51.106;7.164;2023-04-24T02:38:03;14.50;1.00
21193;DHT22;10754;51.106;7.164;2023-04-24T02:40:29;14.50;1.00
21193;DHT22;10754;51.106;7.164;2023-04-24T02:42:55;15.10;1.00
21193;DHT22;10754;51.106;7.164;2023-04-24T02:45:21;15.00;1.00
21193;DHT22;10754;51.106;7.164;2023-04-24T02:47:46;14.90;1.00
21193;DHT22;10754;51.106;7.164;2023-04-24T02:50:12;14.60;1.00
21193;DHT22;10754;51.106;7.164;2023-04-24T02:52:37;14.40;1.00
21193;DHT22;10754;51.106;7.164;2023-04-24T02:55:03;14.10;1.00
21193;DHT22;10754;51.106;7.164;2023-04-24T02:57:28;14.50;1.00
21193;DHT22;10754;51.106;7.164;2023-04-24T02:59:54;14.30;1.00
21193;DHT22;10754;51.106;7.164;2023-04-24T03:02:19;14.30;1.00
21193;DHT22;10754;51.106;7.164;2023-04-24T03:04:46;14.20;1.00
21193;DHT22;10754;51.106;7.164;2023-04-24T03:07:13;14.10;1.00
21193;DHT22;10754;51.106;7.164;2023-04-24T03:09:40;14.10;1.00
21193;DHT22;10754;51.106;7.164;2023-04-24T03:12:05;14.00;1.00
21193;DHT22;10754;51.106;7.164;2023-04-24T03:14:31;13.80;1.00
21193;DHT22;10754;51.106;7.164;2023-04-24T03:16:56;14.00;1.00
21193;DHT22;10754;51.106;7.164;2023-04-24T03:19:22;14.00;1.00
21193;DHT22;10754;51.106;7.164;2023-04-24T03:21:48;14.10;1.00
21193;DHT22;10754;51.106;7.164;2023-04-24T03:24:14;14.00;1.00
21193;DHT22;10754;51.106;7.164;2023-04-24T03:26:39;13.80;1.00
21193;DHT22;10754;51.106;7.164;2023-04-24T03:29:04;13.90;1.00
21193;DHT22;10754;51.106;7.164;2023-04-24T03:31:30;14.00;1.00
21193;DHT22;10754;51.106;7.164;2023-04-24T03:33:55;14.00;1.00
21193;DHT22;10754;51.106;7.164;2023-04-24T03:36:21;13.90;1.00
21193;DHT22;10754;51.106;7.164;2023-04-24T03:38:46;14.30;1.00
21193;DHT22;10754;51.106;7.164;2023-04-24T03:41:12;14.00;1.00
21193;DHT22;10754;51.106;7.164;2023-04-24T03:43:37;14.20;1.00
21193;DHT22;10754;51.106;7.164;2023-04-24T03:46:03;14.00;1.00
21193;DHT22;10754;51.106;7.164;2023-04-24T03:48:29;13.90;1.00
21193;DHT22;10754;51.106;7.164;2023-04-24T03:50:55;14.00;1.00
21193;DHT22;10754;51.106;7.164;2023-04-24T03:53:20;13.90;1.00
21193;DHT22;10754;51.106;7.164;2023-04-24T03:55:46;13.90;1.00
21193;DHT22;10754;51.106;7.164;2023-04-24T03:58:12;13.80;1.00
21193;DHT22;10754;51.106;7.164;2023-04-24T04:00:39;14.00;1.00
21193;DHT22;10754;51.106;7.164;2023-04-24T04:03:05;13.80;1.00
21193;DHT22;10754;51.106;7.164;2023-04-24T04:05:31;13.50;1.00
21193;DHT22;10754;51.106;7.164;2023-04-24T04:07:56;13.70;1.00
21193;DHT22;10754;51.106;7.164;2023-04-24T04:10:22;13.80;1.00
21193;DHT22;10754;51.106;7.164;2023-04-24T04:12:48;13.70;1.00
21193;DHT22;10754;51.106;7.164;2023-04-24T04:15:13;14.00;1.00
21193;DHT22;10754;51.106;7.164;2023-04-24T04:17:39;13.70;1.00
21193;DHT22;10754;51.106;7.164;2023-04-24T04:20:05;13.70;1.00
21193;DHT22;10754;51.106;7.164;2023-04-24T04:22:37;13.70;1.00
21193;DHT22;10754;51.106;7.164;2023-04-24T04:25:03;13.60;1.00
21193;DHT22;10754;51.106;7.164;2023-04-24T04:27:30;13.60;1.00
21193;DHT22;10754;51.106;7.164;2023-04-24T04:29:58;13.60;1.00
21193;DHT22;10754;51.106;7.164;2023-04-24T04:32:24;13.90;1.00
21193;DHT22;10754;51.106;7.164;2023-04-24T04:34:50;13.90;1.00
21193;DHT22;10754;51.106;7.164;2023-04-24T04:37:18;13.70;1.00
21193;DHT22;10754;51.106;7.164;2023-04-24T04:39:44;13.50;1.00
21193;DHT22;10754;51.106;7.164;2023-04-24T04:42:09;13.70;1.00
21193;DHT22;10754;51.106;7.164;2023-04-24T04:44:35;13.50;1.00
21193;DHT22;10754;51.106;7.164;2023-04-24T04:47:01;13.60;1.00
21193;DHT22;10754;51.106;7.164;2023-04-24T04:49:31;13.80;1.00
21193;DHT22;10754;51.106;7.164;2023-04-24T04:51:56;13.80;1.00
21193;DHT22;10754;51.106;7.164;2023-04-24T04:54:22;14.00;1.00
21193;DHT22;10754;51.106;7.164;2023-04-24T04:56:50;13.90;1.00
21193;DHT22;10754;51.106;7.164;2023-04-24T04:59:15;13.70;1.00
21193;DHT22;10754;51.106;7.164;2023-04-24T05:01:41;13.50;1.00
21193;DHT22;10754;51.106;7.164;2023-04-24T05:04:07;13.70;1.00
21193;DHT22;10754;51.106;7.164;2023-04-24T05:06:32;13.60;1.00
21193;DHT22;10754;51.106;7.164;2023-04-24T05:08:57;13.40;1.00
21193;DHT22;10754;51.106;7.164;2023-04-24T05:11:23;13.50;1.00
21193;DHT22;10754;51.106;7.164;2023-04-24T05:13:49;13.40;1.00
21193;DHT22;10754;51.106;7.164;2023-04-24T05:16:14;13.30;1.00
21193;DHT22;10754;51.106;7.164;2023-04-24T05:18:40;13.40;1.00
21193;DHT22;10754;51.106;7.164;2023-04-24T05:21:05;13.40;1.00
21193;DHT22;10754;51.106;7.164;2023-04-24T05:23:31;13.40;1.00
21193;DHT22;10754;51.106;7.164;2023-04-24T05:25:56;13.30;1.00
21193;DHT22;10754;51.106;7.164;2023-04-24T05:28:22;13.30;1.00
21193;DHT22;10754;51.106;7.164;2023-04-24T05:30:48;13.30;1.00
21193;DHT22;10754;51.106;7.164;2023-04-24T05:33:13;13.40;1.00
21193;DHT22;10754;51.106;7.164;2023-04-24T05:35:40;13.30;1.00
21193;DHT22;10754;51.106;7.164;2023-04-24T05:38:11;13.60;1.00
21193;DHT22;10754;51.106;7.164;2023-04-24T05:40:36;13.50;1.00
21193;DHT22;10754;51.106;7.164;2023-04-24T05:43:02;13.60;1.00
21193;DHT22;10754;51.106;7.164;2023-04-24T05:45:27;13.70;1.00
21193;DHT22;10754;51.106;7.164;2023-04-24T05:47:53;13.40;1.00
21193;DHT22;10754;51.106;7.164;2023-04-24T05:50:19;13.30;1.00
21193;DHT22;10754;51.106;7.164;2023-04-24T05:52:44;13.30;1.00
21193;DHT22;10754;51.106;7.164;2023-04-24T05:55:10;13.40;1.00
21193;DHT22;10754;51.106;7.164;2023-04-24T05:57:35;13.60;1.00
21193;DHT22;10754;51.106;7.164;2023-04-24T06:00:01;13.90;1.00
21193;DHT22;10754;51.106;7.164;2023-04-24T06:02:26;13.60;1.00
21193;DHT22;10754;51.106;7.164;2023-04-24T06:04:52;13.30;1.00
21193;DHT22;10754;51.106;7.164;2023-04-24T06:07:18;13.10;1.00
21193;DHT22;10754;51.106;7.164;2023-04-24T06:09:44;13.20;1.00
21193;DHT22;10754;51.106;7.164;2023-04-24T06:12:09;13.20;1.00
21193;DHT22;10754;51.106;7.164;2023-04-24T06:14:35;13.20;1.00
21193;DHT22;10754;51.106;7.164;2023-04-24T06:17:00;13.30;1.00
21193;DHT22;10754;51.106;7.164;2023-04-24T06:19:26;13.00;1.00
21193;DHT22;10754;51.106;7.164;2023-04-24T06:21:51;13.20;1.00
21193;DHT22;10754;51.106;7.164;2023-04-24T06:24:17;13.40;1.00
21193;DHT22;10754;51.106;7.164;2023-04-24T06:26:42;13.60;1.00
21193;DHT22;10754;51.106;7.164;2023-04-24T06:29:08;13.40;1.00
21193;DHT22;10754;51.106;7.164;2023-04-24T06:31:33;13.40;1.00
21193;DHT22;10754;51.106;7.164;2023-04-24T06:34:02;13.10;1.00
21193;DHT22;10754;51.106;7.164;2023-04-24T06:36:28;13.60;1.00
21193;DHT22;10754;51.106;7.164;2023-04-24T06:38:54;13.30;1.00
21193;DHT22;10754;51.106;7.164;2023-04-24T06:41:19;13.50;1.00
21193;DHT22;10754;51.106;7.164;2023-04-24T06:43:44;13.40;1.00
21193;DHT22;10754;51.106;7.164;2023-04-24T06:46:10;13.30;1.00
21193;DHT22;10754;51.106;7.164;2023-04-24T06:48:36;13.40;1.00
21193;DHT22;10754;51.106;7.164;2023-04-24T06:51:01;13.40;1.00
21193;DHT22;10754;51.106;7.164;2023-04-24T06:53:27;13.20;1.00
21193;DHT22;10754;51.106;7.164;2023-04-24T06:55:52;13.20;1.00
21193;DHT22;10754;51.106;7.164;2023-04-24T06:58:18;13.10;1.00
21193;DHT22;10754;51.106;7.164;2023-04-24T07:00:43;13.20;1.00
21193;DHT22;10754;51.106;7.164;2023-04-24T07:03:09;12.70;1.00
21193;DHT22;10754;51.106;7.164;2023-04-24T07:05:35;13.00;1.00
21193;DHT22;10754;51.106;7.164;2023-04-24T07:08:00;12.60;1.00
21193;DHT22;10754;51.106;7.164;2023-04-24T07:10:26;12.80;1.00
21193;DHT22;10754;51.106;7.164;2023-04-24T07:12:54;13.10;1.00
21193;DHT22;10754;51.106;7.164;2023-04-24T07:15:19;13.00;1.00
21193;DHT22;10754;51.106;7.164;2023-04-24T07:17:46;12.90;1.00
21193;DHT22;10754;51.106;7.164;2023-04-24T07:20:11;13.00;1.00
21193;DHT22;10754;51.106;7.164;2023-04-24T07:22:38;13.10;1.00
21193;DHT22;10754;51.106;7.164;2023-04-24T07:25:04;13.00;1.00
21193;DHT22;10754;51.106;7.164;2023-04-24T07:27:30;12.70;1.00
21193;DHT22;10754;51.106;7.164;2023-04-24T07:29:55;12.60;1.00
21193;DHT22;10754;51.106;7.164;2023-04-24T07:32:21;12.50;1.00
21193;DHT22;10754;51.106;7.164;2023-04-24T07:34:46;12.60;1.00
21193;DHT22;10754;51.106;7.164;2023-04-24T07:37:12;12.80;1.00
21193;DHT22;10754;51.106;7.164;2023-04-24T07:39:37;12.70;1.00
21193;DHT22;10754;51.106;7.164;2023-04-24T07:42:03;12.50;1.00
21193;DHT22;10754;51.106;7.164;2023-04-24T07:44:29;12.80;1.00
21193;DHT22;10754;51.106;7.164;2023-04-24T07:46:55;12.60;1.00
21193;DHT22;10754;51.106;7.164;2023-04-24T07:49:21;12.40;1.00
21193;DHT22;10754;51.106;7.164;2023-04-24T07:51:46;12.30;1.00
21193;DHT22;10754;51.106;7.164;2023-04-24T07:54:12;12.30;1.00
21193;DHT22;10754;51.106;7.164;2023-04-24T07:56:37;12.40;1.00
21193;DHT22;10754;51.106;7.164;2023-04-24T07:59:07;12.40;1.00
21193;DHT22;10754;51.106;7.164;2023-04-24T08:01:32;12.30;1.00
21193;DHT22;10754;51.106;7.164;2023-04-24T08:03:58;12.40;1.00
21193;DHT22;10754;51.106;7.164;2023-04-24T08:06:23;12.60;1.00
21193;DHT22;10754;51.106;7.164;2023-04-24T08:08:49;12.80;1.00
21193;DHT22;10754;51.106;7.164;2023-04-24T08:11:15;12.50;1.00
21193;DHT22;10754;51.106;7.164;2023-04-24T08:13:40;12.30;1.00
21193;DHT22;10754;51.106;7.164;2023-04-24T08:16:06;12.30;1.00
21193;DHT22;10754;51.106;7.164;2023-04-24T08:18:31;12.30;1.00
21193;DHT22;10754;51.106;7.164;2023-04-24T08:20:57;12.10;1.00
21193;DHT22;10754;51.106;7.164;2023-04-24T08:23:26;12.00;1.00
21193;DHT22;10754;51.106;7.164;2023-04-24T08:25:52;12.00;1.00
21193;DHT22;10754;51.106;7.164;2023-04-24T08:28:17;11.90;1.00
21193;DHT22;10754;51.106;7.164;2023-04-24T08:30:46;11.90;1.00
21193;DHT22;10754;51.106;7.164;2023-04-24T08:33:12;12.20;1.00
21193;DHT22;10754;51.106;7.164;2023-04-24T08:35:38;12.40;1.00
21193;DHT22;10754;51.106;7.164;2023-04-24T08:38:04;12.40;1.00
21193;DHT22;10754;51.106;7.164;2023-04-24T08:40:32;12.70;1.00
21193;DHT22;10754;51.106;7.164;2023-04-24T08:42:59;12.60;1.00
21193;DHT22;10754;51.106;7.164;2023-04-24T08:45:24;12.20;1.00
21193;DHT22;10754;51.106;7.164;2023-04-24T08:47:52;12.60;1.00
21193;DHT22;10754;51.106;7.164;2023-04-24T08:50:18;12.40;1.00
21193;DHT22;10754;51.106;7.164;2023-04-24T08:52:44;12.30;1.00
21193;DHT22;10754;51.106;7.164;2023-04-24T08:55:09;11.90;1.00
21193;DHT22;10754;51.106;7.164;2023-04-24T08:57:35;11.80;1.00
21193;DHT22;10754;51.106;7.164;2023-04-24T09:00:04;11.90;1.00
21193;DHT22;10754;51.106;7.164;2023-04-24T09:02:30;11.80;1.00
21193;DHT22;10754;51.106;7.164;2023-04-24T09:04:57;12.10;1.00
21193;DHT22;10754;51.106;7.164;2023-04-24T09:07:24;11.70;1.00
21193;DHT22;10754;51.106;7.164;2023-04-24T09:09:51;11.60;1.00
21193;DHT22;10754;51.106;7.164;2023-04-24T09:12:17;11.70;1.00
21193;DHT22;10754;51.106;7.164;2023-04-24T09:14:44;11.60;1.00
21193;DHT22;10754;51.106;7.164;2023-04-24T09:17:13;11.60;1.00
21193;DHT22;10754;51.106;7.164;2023-04-24T09:19:40;11.60;1.00
21193;DHT22;10754;51.106;7.164;2023-04-24T09:22:07;11.50;1.00
21193;DHT22;10754;51.106;7.164;2023-04-24T09:24:33;11.50;1.00
21193;DHT22;10754;51.106;7.164;2023-04-24T09:27:00;11.40;1.00
21193;DHT22;10754;51.106;7.164;2023-04-24T09:29:29;11.40;1.00
21193;DHT22;10754;51.106;7.164;2023-04-24T09:31:55;11.50;1.00
21193;DHT22;10754;51.106;7.164;2023-04-24T09:34:22;11.50;1.00
21193;DHT22;10754;51.106;7.164;2023-04-24T09:36:49;11.30;1.00
21193;DHT22;10754;51.106;7.164;2023-04-24T09:39:16;11.40;1.00
21193;DHT22;10754;51.106;7.164;2023-04-24T09:41:46;11.60;1.00
21193;DHT22;10754;51.106;7.164;2023-04-24T09:44:18;11.60;1.00
21193;DHT22;10754;51.106;7.164;2023-04-24T09:49:29;11.70;1.00
21193;DHT22;10754;51.106;7.164;2023-04-24T09:52:09;11.80;1.00
21193;DHT22;10754;51.106;7.164;2023-04-24T09:54:35;11.90;1.00
21193;DHT22;10754;51.106;7.164;2023-04-24T09:57:05;11.90;1.00
21193;DHT22;10754;51.106;7.164;2023-04-24T09:59:32;11.90;1.00
21193;DHT22;10754;51.106;7.164;2023-04-24T10:01:59;11.90;1.00
21193;DHT22;10754;51.106;7.164;2023-04-24T10:04:26;11.90;1.00
21193;DHT22;10754;51.106;7.164;2023-04-24T10:06:54;11.90;1.00
21193;DHT22;10754;51.106;7.164;2023-04-24T10:09:22;12.00;1.00
21193;DHT22;10754;51.106;7.164;2023-04-24T10:11:53;12.10;1.00
21193;DHT22;10754;51.106;7.164;2023-04-24T10:14:23;12.10;1.00
21193;DHT22;10754;51.106;7.164;2023-04-24T10:16:53;12.20;1.00
21193;DHT22;10754;51.106;7.164;2023-04-24T10:19:19;12.30;1.00
21193;DHT22;10754;51.106;7.164;2023-04-24T10:21:45;12.30;1.00
21193;DHT22;10754;51.106;7.164;2023-04-24T10:24:16;12.50;1.00
21193;DHT22;10754;51.106;7.164;2023-04-24T10:26:43;12.60;1.00
21193;DHT22;10754;51.106;7.164;2023-04-24T10:29:10;12.50;1.00
21193;DHT22;10754;51.106;7.164;2023-04-24T10:31:38;12.70;1.00
21193;DHT22;10754;51.106;7.164;2023-04-24T10:34:06;13.10;1.00
21193;DHT22;10754;51.106;7.164;2023-04-24T10:36:33;12.80;1.00
21193;DHT22;10754;51.106;7.164;2023-04-24T10:39:02;12.70;1.00
21193;DHT22;10754;51.106;7.164;2023-04-24T10:41:30;12.70;1.00
21193;DHT22;10754;51.106;7.164;2023-04-24T10:44:13;12.80;1.00
21193;DHT22;10754;51.106;7.164;2023-04-24T10:46:43;12.90;1.00
21193;DHT22;10754;51.106;7.164;2023-04-24T10:49:08;13.20;1.00
21193;DHT22;10754;51.106;7.164;2023-04-24T10:51:48;13.10;1.00
21193;DHT22;10754;51.106;7.164;2023-04-24T10:54:35;13.10;1.00
21193;DHT22;10754;51.106;7.164;2023-04-24T10:57:34;13.10;1.00
21193;DHT22;10754;51.106;7.164;2023-04-24T11:00:19;13.10;1.00
21193;DHT22;10754;51.106;7.164;2023-04-24T11:02:47;13.00;1.00
21193;DHT22;10754;51.106;7.164;2023-04-24T11:05:19;13.00;1.00
21193;DHT22;10754;51.106;7.164;2023-04-24T11:08:10;13.00;1.00
21193;DHT22;10754;51.106;7.164;2023-04-24T11:13:24;12.90;1.00
21193;DHT22;10754;51.106;7.164;2023-04-24T11:16:33;13.10;1.00
21193;DHT22;10754;51.106;7.164;2023-04-24T11:19:08;13.20;1.00
21193;DHT22;10754;51.106;7.164;2023-04-24T11:21:47;13.20;1.00
21193;DHT22;10754;51.106;7.164;2023-04-24T11:24:26;13.20;1.00
21193;DHT22;10754;51.106;7.164;2023-04-24T11:26:58;13.40;1.00
21193;DHT22;10754;51.106;7.164;2023-04-24T11:29:39;13.40;1.00
21193;DHT22;10754;51.106;7.164;2023-04-24T11:35:01;13.30;1.00
21193;DHT22;10754;51.106;7.164;2023-04-24T11:37:28;13.50;1.00
21193;DHT22;10754;51.106;7.164;2023-04-24T11:39:56;13.60;1.00
21193;DHT22;10754;51.106;7.164;2023-04-24T11:42:22;13.80;1.00
21193;DHT22;10754;51.106;7.164;2023-04-24T11:44:55;13.60;1.00
21193;DHT22;10754;51.106;7.164;2023-04-24T11:47:29;13.90;1.00
21193;DHT22;10754;51.106;7.164;2023-04-24T11:49:55;14.10;1.00
21193;DHT22;10754;51.106;7.164;2023-04-24T11:52:20;14.40;1.00
21193;DHT22;10754;51.106;7.164;2023-04-24T11:54:48;14.70;1.00
21193;DHT22;10754;51.106;7.164;2023-04-24T11:57:14;14.80;1.00
21193;DHT22;10754;51.106;7.164;2023-04-24T11:59:39;14.90;1.00
21193;DHT22;10754;51.106;7.164;2023-04-24T12:02:05;14.80;1.00
21193;DHT22;10754;51.106;7.164;2023-04-24T12:04:41;14.60;1.00
21193;DHT22;10754;51.106;7.164;2023-04-24T12:07:07;14.60;1.00
21193;DHT22;10754;51.106;7.164;2023-04-24T12:09:46;14.40;1.00
21193;DHT22;10754;51.106;7.164;2023-04-24T12:12:13;14.50;1.00
21193;DHT22;10754;51.106;7.164;2023-04-24T12:14:48;14.50;1.00
21193;DHT22;10754;51.106;7.164;2023-04-24T12:17:15;14.40;1.00
21193;DHT22;10754;51.106;7.164;2023-04-24T12:19:46;14.40;1.00
21193;DHT22;10754;51.106;7.164;2023-04-24T12:22:12;14.40;1.00
21193;DHT22;10754;51.106;7.164;2023-04-24T12:25:02;14.40;1.00
21193;DHT22;10754;51.106;7.164;2023-04-24T12:27:32;14.60;1.00
21193;DHT22;10754;51.106;7.164;2023-04-24T12:30:03;14.60;1.00
21193;DHT22;10754;51.106;7.164;2023-04-24T12:32:29;14.60;1.00
21193;DHT22;10754;51.106;7.164;2023-04-24T12:34:55;14.40;1.00
21193;DHT22;10754;51.106;7.164;2023-04-24T12:37:24;14.50;1.00
21193;DHT22;10754;51.106;7.164;2023-04-24T12:40:08;14.40;1.00
21193;DHT22;10754;51.106;7.164;2023-04-24T12:42:35;14.50;1.00
21193;DHT22;10754;51.106;7.164;2023-04-24T12:45:05;14.50;1.00
21193;DHT22;10754;51.106;7.164;2023-04-24T12:47:32;14.50;1.00
21193;DHT22;10754;51.106;7.164;2023-04-24T12:49:58;14.70;1.00
21193;DHT22;10754;51.106;7.164;2023-04-24T12:52:26;14.70;1.00
21193;DHT22;10754;51.106;7.164;2023-04-24T12:54:54;14.90;1.00
21193;DHT22;10754;51.106;7.164;2023-04-24T12:57:20;14.60;1.00
21193;DHT22;10754;51.106;7.164;2023-04-24T12:59:46;14.70;1.00
21193;DHT22;10754;51.106;7.164;2023-04-24T13:02:11;14.70;1.00
21193;DHT22;10754;51.106;7.164;2023-04-24T13:04:37;14.80;1.00
21193;DHT22;10754;51.106;7.164;2023-04-24T13:07:02;14.80;1.00
21193;DHT22;10754;51.106;7.164;2023-04-24T13:09:28;14.80;1.00
21193;DHT22;10754;51.106;7.164;2023-04-24T13:11:54;14.90;1.00
21193;DHT22;10754;51.106;7.164;2023-04-24T13:14:21;14.80;1.00
21193;DHT22;10754;51.106;7.164;2023-04-24T13:16:47;15.00;1.00
21193;DHT22;10754;51.106;7.164;2023-04-24T13:19:12;15.10;1.00
21193;DHT22;10754;51.106;7.164;2023-04-24T13:21:38;15.30;1.00
21193;DHT22;10754;51.106;7.164;2023-04-24T13:24:03;15.30;1.00
21193;DHT22;10754;51.106;7.164;2023-04-24T13:26:30;15.30;1.00
21193;DHT22;10754;51.106;7.164;2023-04-24T13:28:55;15.20;1.00
21193;DHT22;10754;51.106;7.164;2023-04-24T13:31:21;15.10;1.00
21193;DHT22;10754;51.106;7.164;2023-04-24T13:33:46;15.10;1.00
21193;DHT22;10754;51.106;7.164;2023-04-24T13:36:12;15.00;1.00
21193;DHT22;10754;51.106;7.164;2023-04-24T13:38:37;15.00;1.00
21193;DHT22;10754;51.106;7.164;2023-04-24T13:41:03;14.90;1.00
21193;DHT22;10754;51.106;7.164;2023-04-24T13:43:28;15.20;1.00
21193;DHT22;10754;51.106;7.164;2023-04-24T13:45:54;15.60;1.00
21193;DHT22;10754;51.106;7.164;2023-04-24T13:48:19;15.30;1.00
21193;DHT22;10754;51.106;7.164;2023-04-24T13:50:46;15.30;1.00
21193;DHT22;10754;51.106;7.164;2023-04-24T13:53:13;15.30;1.00
21193;DHT22;10754;51.106;7.164;2023-04-24T13:55:39;15.30;1.00
21193;DHT22;10754;51.106;7.164;2023-04-24T13:58:04;15.10;1.00
21193;DHT22;10754;51.106;7.164;2023-04-24T14:00:30;15.10;1.00
21193;DHT22;10754;51.106;7.164;2023-04-24T14:02:56;15.00;1.00
21193;DHT22;10754;51.106;7.164;2023-04-24T14:05:21;15.00;1.00
21193;DHT22;10754;51.106;7.164;2023-04-24T14:07:47;15.00;1.00
21193;DHT22;10754;51.106;7.164;2023-04-24T14:10:13;15.00;1.00
21193;DHT22;10754;51.106;7.164;2023-04-24T14:12:38;15.00;1.00
21193;DHT22;10754;51.106;7.164;2023-04-24T14:15:04;14.80;1.00
21193;DHT22;10754;51.106;7.164;2023-04-24T14:17:30;15.00;1.00
21193;DHT22;10754;51.106;7.164;2023-04-24T14:19:56;15.20;1.00
21193;DHT22;10754;51.106;7.164;2023-04-24T14:22:22;15.30;1.00
21193;DHT22;10754;51.106;7.164;2023-04-24T14:24:47;15.50;1.00
21193;DHT22;10754;51.106;7.164;2023-04-24T14:27:13;15.50;1.00
21193;DHT22;10754;51.106;7.164;2023-04-24T14:29:38;15.60;1.00
21193;DHT22;10754;51.106;7.164;2023-04-24T14:32:04;15.60;1.00
21193;DHT22;10754;51.106;7.164;2023-04-24T14:34:29;15.50;1.00
21193;DHT22;10754;51.106;7.164;2023-04-24T14:36:55;15.50;1.00
21193;DHT22;10754;51.106;7.164;2023-04-24T14:39:21;15.40;1.00
21193;DHT22;10754;51.106;7.164;2023-04-24T14:41:46;15.30;1.00
21193;DHT22;10754;51.106;7.164;2023-04-24T14:44:12;15.30;1.00
21193;DHT22;10754;51.106;7.164;2023-04-24T14:46:37;15.10;1.00
21193;DHT22;10754;51.106;7.164;2023-04-24T14:49:03;15.10;1.00
21193;DHT22;10754;51.106;7.164;2023-04-24T14:51:28;15.40;1.00
21193;DHT22;10754;51.106;7.164;2023-04-24T14:53:54;15.20;1.00
21193;DHT22;10754;51.106;7.164;2023-04-24T14:56:20;15.20;1.00
21193;DHT22;10754;51.106;7.164;2023-04-24T14:58:46;15.30;1.00
21193;DHT22;10754;51.106;7.164;2023-04-24T15:01:12;15.30;1.00
21193;DHT22;10754;51.106;7.164;2023-04-24T15:03:37;15.20;1.00
21193;DHT22;10754;51.106;7.164;2023-04-24T15:06:03;15.30;1.00
21193;DHT22;10754;51.106;7.164;2023-04-24T15:08:28;15.40;1.00
21193;DHT22;10754;51.106;7.164;2023-04-24T15:10:54;15.40;1.00
21193;DHT22;10754;51.106;7.164;2023-04-24T15:13:20;15.30;1.00
21193;DHT22;10754;51.106;7.164;2023-04-24T15:15:46;15.30;1.00
21193;DHT22;10754;51.106;7.164;2023-04-24T15:18:12;15.30;1.00
21193;DHT22;10754;51.106;7.164;2023-04-24T15:20:38;15.30;1.00
21193;DHT22;10754;51.106;7.164;2023-04-24T15:23:08;15.20;1.00
21193;DHT22;10754;51.106;7.164;2023-04-24T15:25:33;15.40;1.00
21193;DHT22;10754;51.106;7.164;2023-04-24T15:27:59;15.40;1.00
21193;DHT22;10754;51.106;7.164;2023-04-24T15:30:26;15.40;1.00
21193;DHT22;10754;51.106;7.164;2023-04-24T15:32:51;15.30;1.00
21193;DHT22;10754;51.106;7.164;2023-04-24T15:35:17;15.40;1.00
21193;DHT22;10754;51.106;7.164;2023-04-24T15:37:43;15.40;1.00
21193;DHT22;10754;51.106;7.164;2023-04-24T15:40:09;15.30;1.00
21193;DHT22;10754;51.106;7.164;2023-04-24T15:42:37;15.50;1.00
21193;DHT22;10754;51.106;7.164;2023-04-24T15:45:03;15.40;1.00
21193;DHT22;10754;51.106;7.164;2023-04-24T15:47:29;15.60;1.00
21193;DHT22;10754;51.106;7.164;2023-04-24T15:49:54;15.60;1.00
21193;DHT22;10754;51.106;7.164;2023-04-24T15:52:20;15.50;1.00